Alva, Florida
Current Conditions -  °F | °C
As of 9:53 AM on Sunday 21 Dec 2014 (Local Time) from KRSW Reporting Station
Clear Clear  
Wind Chill: 74°   Ceiling: Unl
Heat Index: 74°   Visibility: 10mi
Dew Point: 64°   Wind: 7mph
Humidity: 71%   Direction: 150°SSE
Pressure: 30.11"   Gusts: NA
Location:  26.72°N, 81.61°W
Report Text: KRSW 211453Z 15006KT 10SM CLR 23/18 A3011 RMK AO2 SLP192 T02330178 51012
Loading
Personal Weather Stations






























Interactive Weather Map New forecast layout! Learn more

10-Day Weather Forecast

Advertisements
Track Severe Weather on mobile